sensor_id;sensor_type;location;lat;lon;timestamp;pressure;altitude;pressure_sealevel;temperature
65765;BMP180;52915;53.718;19.946;2022-12-07T00:04:49;99570.80;;;3.10
65765;BMP180;52915;53.718;19.946;2022-12-07T00:09:52;99566.20;;;3.10
65765;BMP180;52915;53.718;19.946;2022-12-07T00:14:56;99558.60;;;2.92
65765;BMP180;52915;53.718;19.946;2022-12-07T00:20:00;99553.60;;;2.80
65765;BMP180;52915;53.718;19.946;2022-12-07T00:25:04;99546.40;;;2.82
65765;BMP180;52915;53.718;19.946;2022-12-07T00:30:09;99542.20;;;2.90
65765;BMP180;52915;53.718;19.946;2022-12-07T00:35:13;99538.00;;;3.00
65765;BMP180;52915;53.718;19.946;2022-12-07T00:40:17;99538.00;;;3.04
65765;BMP180;52915;53.718;19.946;2022-12-07T00:45:21;99528.00;;;3.00
65765;BMP180;52915;53.718;19.946;2022-12-07T00:50:24;99534.80;;;2.70
65765;BMP180;52915;53.718;19.946;2022-12-07T00:55:33;99520.40;;;2.60
65765;BMP180;52915;53.718;19.946;2022-12-07T01:00:39;99518.20;;;2.80
65765;BMP180;52915;53.718;19.946;2022-12-07T01:05:52;99509.00;;;2.90
65765;BMP180;52915;53.718;19.946;2022-12-07T01:11:02;99503.40;;;3.00
65765;BMP180;52915;53.718;19.946;2022-12-07T01:16:10;99503.80;;;2.90
65765;BMP180;52915;53.718;19.946;2022-12-07T01:21:25;99491.60;;;2.70
65765;BMP180;52915;53.718;19.946;2022-12-07T01:26:29;99488.20;;;2.70
65765;BMP180;52915;53.718;19.946;2022-12-07T01:31:33;99480.60;;;2.70
65765;BMP180;52915;53.718;19.946;2022-12-07T01:36:37;99487.80;;;2.80
65765;BMP180;52915;53.718;19.946;2022-12-07T01:41:41;99485.20;;;2.80
65765;BMP180;52915;53.718;19.946;2022-12-07T01:47:02;99480.40;;;2.80
65765;BMP180;52915;53.718;19.946;2022-12-07T01:52:43;99471.60;;;2.58
65765;BMP180;52915;53.718;19.946;2022-12-07T01:57:50;99465.40;;;2.50
65765;BMP180;52915;53.718;19.946;2022-12-07T02:03:08;99466.40;;;2.58
65765;BMP180;52915;53.718;19.946;2022-12-07T02:08:13;99458.20;;;2.60
65765;BMP180;52915;53.718;19.946;2022-12-07T02:13:30;99452.40;;;2.70
65765;BMP180;52915;53.718;19.946;2022-12-07T02:34:58;99427.20;;;2.48
65765;BMP180;52915;53.718;19.946;2022-12-07T02:40:50;99422.40;;;2.50
65765;BMP180;52915;53.718;19.946;2022-12-07T02:45:56;99417.40;;;2.40
65765;BMP180;52915;53.718;19.946;2022-12-07T02:51:01;99415.40;;;2.20
65765;BMP180;52915;53.718;19.946;2022-12-07T02:56:34;99410.80;;;2.10
65765;BMP180;52915;53.718;19.946;2022-12-07T03:12:44;99394.40;;;2.30
65765;BMP180;52915;53.718;19.946;2022-12-07T03:17:51;99390.00;;;2.30
65765;BMP180;52915;53.718;19.946;2022-12-07T03:22:57;99383.20;;;2.30
65765;BMP180;52915;53.718;19.946;2022-12-07T03:28:06;99374.60;;;2.30
65765;BMP180;52915;53.718;19.946;2022-12-07T03:33:39;99364.80;;;2.30
65765;BMP180;52915;53.718;19.946;2022-12-07T03:38:53;99361.80;;;2.26
65765;BMP180;52915;53.718;19.946;2022-12-07T03:44:02;99361.40;;;2.10
65765;BMP180;52915;53.718;19.946;2022-12-07T03:55:05;99352.00;;;2.10
65765;BMP180;52915;53.718;19.946;2022-12-07T03:59:47;99344.20;;;2.20
65765;BMP180;52915;53.718;19.946;2022-12-07T04:04:52;99341.20;;;2.12
65765;BMP180;52915;53.718;19.946;2022-12-07T04:09:56;99336.00;;;2.20
65765;BMP180;52915;53.718;19.946;2022-12-07T04:15:01;99332.60;;;2.20
65765;BMP180;52915;53.718;19.946;2022-12-07T04:20:06;99326.40;;;2.20
65765;BMP180;52915;53.718;19.946;2022-12-07T04:25:10;99316.20;;;2.10
65765;BMP180;52915;53.718;19.946;2022-12-07T04:30:14;99311.80;;;2.00
65765;BMP180;52915;53.718;19.946;2022-12-07T04:35:18;99313.60;;;2.00
65765;BMP180;52915;53.718;19.946;2022-12-07T04:40:22;99301.40;;;2.00
65765;BMP180;52915;53.718;19.946;2022-12-07T04:45:25;99294.20;;;2.00
65765;BMP180;52915;53.718;19.946;2022-12-07T04:50:29;99291.60;;;2.00
65765;BMP180;52915;53.718;19.946;2022-12-07T04:55:33;99289.00;;;1.98
65765;BMP180;52915;53.718;19.946;2022-12-07T05:00:37;99283.60;;;2.00
65765;BMP180;52915;53.718;19.946;2022-12-07T05:05:41;99277.20;;;2.00
65765;BMP180;52915;53.718;19.946;2022-12-07T05:10:45;99272.60;;;1.98
65765;BMP180;52915;53.718;19.946;2022-12-07T05:15:49;99266.40;;;1.92
65765;BMP180;52915;53.718;19.946;2022-12-07T05:20:53;99267.20;;;1.90
65765;BMP180;52915;53.718;19.946;2022-12-07T05:25:56;99262.80;;;1.90
65765;BMP180;52915;53.718;19.946;2022-12-07T05:31:00;99254.60;;;1.82
65765;BMP180;52915;53.718;19.946;2022-12-07T05:36:06;99250.20;;;1.80
65765;BMP180;52915;53.718;19.946;2022-12-07T05:41:14;99248.40;;;1.80
65765;BMP180;52915;53.718;19.946;2022-12-07T05:46:37;99249.80;;;1.80
65765;BMP180;52915;53.718;19.946;2022-12-07T05:51:41;99244.40;;;1.80
65765;BMP180;52915;53.718;19.946;2022-12-07T05:56:45;99245.80;;;1.80
65765;BMP180;52915;53.718;19.946;2022-12-07T06:02:09;99244.20;;;1.90
65765;BMP180;52915;53.718;19.946;2022-12-07T06:07:16;99254.40;;;1.96
65765;BMP180;52915;53.718;19.946;2022-12-07T06:12:20;99245.60;;;1.90
65765;BMP180;52915;53.718;19.946;2022-12-07T06:17:41;99248.60;;;1.90
65765;BMP180;52915;53.718;19.946;2022-12-07T06:22:45;99243.20;;;1.90
65765;BMP180;52915;53.718;19.946;2022-12-07T06:27:49;99234.80;;;1.90
65765;BMP180;52915;53.718;19.946;2022-12-07T06:32:52;99236.80;;;1.90
65765;BMP180;52915;53.718;19.946;2022-12-07T06:37:56;99232.60;;;1.90
65765;BMP180;52915;53.718;19.946;2022-12-07T06:43:00;99230.40;;;1.88
65765;BMP180;52915;53.718;19.946;2022-12-07T06:48:04;99233.80;;;1.90
65765;BMP180;52915;53.718;19.946;2022-12-07T06:53:09;99231.20;;;1.90
65765;BMP180;52915;53.718;19.946;2022-12-07T06:58:13;99231.80;;;1.90
65765;BMP180;52915;53.718;19.946;2022-12-07T07:03:17;99228.20;;;1.90
65765;BMP180;52915;53.718;19.946;2022-12-07T07:08:21;99219.40;;;1.98
65765;BMP180;52915;53.718;19.946;2022-12-07T07:13:26;99217.40;;;2.00
65765;BMP180;52915;53.718;19.946;2022-12-07T07:18:30;99214.40;;;2.10
65765;BMP180;52915;53.718;19.946;2022-12-07T07:23:34;99214.60;;;2.00
65765;BMP180;52915;53.718;19.946;2022-12-07T07:28:38;99211.60;;;1.90
65765;BMP180;52915;53.718;19.946;2022-12-07T07:33:42;99206.40;;;1.90
65765;BMP180;52915;53.718;19.946;2022-12-07T07:38:47;99207.60;;;2.00
65765;BMP180;52915;53.718;19.946;2022-12-07T07:43:51;99212.20;;;2.00
65765;BMP180;52915;53.718;19.946;2022-12-07T07:48:54;99214.80;;;2.00
65765;BMP180;52915;53.718;19.946;2022-12-07T07:53:58;99211.20;;;2.00
65765;BMP180;52915;53.718;19.946;2022-12-07T07:59:02;99218.00;;;2.10
65765;BMP180;52915;53.718;19.946;2022-12-07T08:04:06;99213.60;;;2.20
65765;BMP180;52915;53.718;19.946;2022-12-07T08:09:10;99214.60;;;2.22
65765;BMP180;52915;53.718;19.946;2022-12-07T08:14:14;99213.20;;;2.30
65765;BMP180;52915;53.718;19.946;2022-12-07T08:19:18;99210.20;;;2.30
65765;BMP180;52915;53.718;19.946;2022-12-07T08:24:23;99206.00;;;2.30
65765;BMP180;52915;53.718;19.946;2022-12-07T08:29:29;99208.80;;;2.36
65765;BMP180;52915;53.718;19.946;2022-12-07T08:34:32;99209.80;;;2.48
65765;BMP180;52915;53.718;19.946;2022-12-07T08:39:36;99213.60;;;2.50
65765;BMP180;52915;53.718;19.946;2022-12-07T08:44:40;99224.00;;;2.50
65765;BMP180;52915;53.718;19.946;2022-12-07T08:49:48;99223.20;;;2.60
65765;BMP180;52915;53.718;19.946;2022-12-07T08:54:53;99217.60;;;2.60
65765;BMP180;52915;53.718;19.946;2022-12-07T08:59:57;99215.60;;;2.80
65765;BMP180;52915;53.718;19.946;2022-12-07T09:05:02;99217.20;;;2.90
65765;BMP180;52915;53.718;19.946;2022-12-07T09:10:07;99210.00;;;3.00
65765;BMP180;52915;53.718;19.946;2022-12-07T09:15:10;99206.80;;;3.10
65765;BMP180;52915;53.718;19.946;2022-12-07T09:20:14;99199.80;;;3.10
65765;BMP180;52915;53.718;19.946;2022-12-07T09:25:18;99193.80;;;3.20
65765;BMP180;52915;53.718;19.946;2022-12-07T09:30:22;99191.00;;;3.30
65765;BMP180;52915;53.718;19.946;2022-12-07T09:35:26;99189.20;;;3.40
65765;BMP180;52915;53.718;19.946;2022-12-07T09:40:33;99188.60;;;3.40
65765;BMP180;52915;53.718;19.946;2022-12-07T09:45:37;99183.20;;;3.40
65765;BMP180;52915;53.718;19.946;2022-12-07T09:50:49;99186.20;;;3.40
65765;BMP180;52915;53.718;19.946;2022-12-07T09:55:54;99182.00;;;3.50
65765;BMP180;52915;53.718;19.946;2022-12-07T10:01:14;99179.00;;;3.50
65765;BMP180;52915;53.718;19.946;2022-12-07T10:06:19;99179.00;;;3.50
65765;BMP180;52915;53.718;19.946;2022-12-07T10:11:23;99173.00;;;3.42
65765;BMP180;52915;53.718;19.946;2022-12-07T10:16:39;99168.60;;;3.50
65765;BMP180;52915;53.718;19.946;2022-12-07T10:22:04;99171.60;;;3.54
65765;BMP180;52915;53.718;19.946;2022-12-07T10:27:34;99169.80;;;3.40
65765;BMP180;52915;53.718;19.946;2022-12-07T10:32:38;99166.60;;;3.50
65765;BMP180;52915;53.718;19.946;2022-12-07T10:37:42;99164.80;;;3.44
65765;BMP180;52915;53.718;19.946;2022-12-07T10:43:19;99165.20;;;3.38
65765;BMP180;52915;53.718;19.946;2022-12-07T10:54:59;99165.00;;;3.50
65765;BMP180;52915;53.718;19.946;2022-12-07T11:11:37;99154.80;;;3.58
65765;BMP180;52915;53.718;19.946;2022-12-07T11:17:05;99154.00;;;3.50
65765;BMP180;52915;53.718;19.946;2022-12-07T11:22:31;99149.00;;;3.70
65765;BMP180;52915;53.718;19.946;2022-12-07T11:43:56;99142.60;;;3.50
65765;BMP180;52915;53.718;19.946;2022-12-07T11:49:36;99138.80;;;3.36
65765;BMP180;52915;53.718;19.946;2022-12-07T11:54:52;99135.20;;;3.30
65765;BMP180;52915;53.718;19.946;2022-12-07T12:00:06;99142.20;;;3.30
65765;BMP180;52915;53.718;19.946;2022-12-07T12:05:21;99135.60;;;3.10
65765;BMP180;52915;53.718;19.946;2022-12-07T12:10:54;99133.20;;;3.10
65765;BMP180;52915;53.718;19.946;2022-12-07T12:22:20;99134.80;;;3.10
65765;BMP180;52915;53.718;19.946;2022-12-07T12:27:34;99135.00;;;3.10
65765;BMP180;52915;53.718;19.946;2022-12-07T12:32:42;99133.60;;;3.10
65765;BMP180;52915;53.718;19.946;2022-12-07T12:37:47;99124.80;;;2.90
65765;BMP180;52915;53.718;19.946;2022-12-07T12:42:56;99109.00;;;2.90
65765;BMP180;52915;53.718;19.946;2022-12-07T12:48:02;99107.60;;;3.00
65765;BMP180;52915;53.718;19.946;2022-12-07T12:53:26;99110.20;;;3.00
65765;BMP180;52915;53.718;19.946;2022-12-07T12:58:37;99106.40;;;3.12
65765;BMP180;52915;53.718;19.946;2022-12-07T13:03:53;99103.20;;;3.10
65765;BMP180;52915;53.718;19.946;2022-12-07T13:08:59;99101.20;;;3.00
65765;BMP180;52915;53.718;19.946;2022-12-07T13:24:49;99089.40;;;2.70
65765;BMP180;52915;53.718;19.946;2022-12-07T13:29:56;99093.20;;;2.70
65765;BMP180;52915;53.718;19.946;2022-12-07T13:35:33;99090.40;;;2.60
65765;BMP180;52915;53.718;19.946;2022-12-07T13:40:38;99082.40;;;2.50
65765;BMP180;52915;53.718;19.946;2022-12-07T13:45:42;99083.40;;;2.60
65765;BMP180;52915;53.718;19.946;2022-12-07T13:51:00;99078.80;;;2.60
65765;BMP180;52915;53.718;19.946;2022-12-07T13:56:14;99075.40;;;2.50
65765;BMP180;52915;53.718;19.946;2022-12-07T14:01:19;99075.20;;;2.40
65765;BMP180;52915;53.718;19.946;2022-12-07T14:06:26;99081.20;;;2.40
65765;BMP180;52915;53.718;19.946;2022-12-07T14:11:31;99078.60;;;2.50
65765;BMP180;52915;53.718;19.946;2022-12-07T14:16:36;99076.40;;;2.36
65765;BMP180;52915;53.718;19.946;2022-12-07T14:21:42;99068.80;;;2.40
65765;BMP180;52915;53.718;19.946;2022-12-07T14:26:49;99068.60;;;2.50
65765;BMP180;52915;53.718;19.946;2022-12-07T14:31:54;99069.60;;;2.40
65765;BMP180;52915;53.718;19.946;2022-12-07T14:42:48;99070.00;;;2.40
65765;BMP180;52915;53.718;19.946;2022-12-07T14:47:54;99061.80;;;2.34
65765;BMP180;52915;53.718;19.946;2022-12-07T14:53:30;99068.60;;;2.30
65765;BMP180;52915;53.718;19.946;2022-12-07T14:58:40;99066.00;;;2.32
65765;BMP180;52915;53.718;19.946;2022-12-07T15:03:45;99057.80;;;2.30
65765;BMP180;52915;53.718;19.946;2022-12-07T15:08:49;99050.80;;;2.10
65765;BMP180;52915;53.718;19.946;2022-12-07T15:13:54;99046.80;;;2.16
65765;BMP180;52915;53.718;19.946;2022-12-07T15:19:22;99046.00;;;2.20
65765;BMP180;52915;53.718;19.946;2022-12-07T15:24:33;99043.00;;;2.00
65765;BMP180;52915;53.718;19.946;2022-12-07T15:29:37;99040.40;;;2.10
65765;BMP180;52915;53.718;19.946;2022-12-07T15:34:42;99039.60;;;2.10
65765;BMP180;52915;53.718;19.946;2022-12-07T15:39:46;99040.00;;;2.18
65765;BMP180;52915;53.718;19.946;2022-12-07T15:44:50;99037.40;;;2.00
65765;BMP180;52915;53.718;19.946;2022-12-07T15:50:14;99036.80;;;2.00
65765;BMP180;52915;53.718;19.946;2022-12-07T15:55:18;99039.40;;;2.02
65765;BMP180;52915;53.718;19.946;2022-12-07T16:00:22;99037.40;;;2.08
65765;BMP180;52915;53.718;19.946;2022-12-07T16:05:27;99041.40;;;2.02
65765;BMP180;52915;53.718;19.946;2022-12-07T16:10:34;99040.40;;;2.00
65765;BMP180;52915;53.718;19.946;2022-12-07T16:15:43;99036.20;;;2.08
65765;BMP180;52915;53.718;19.946;2022-12-07T16:20:50;99031.00;;;1.94
65765;BMP180;52915;53.718;19.946;2022-12-07T16:25:54;99025.80;;;1.96
65765;BMP180;52915;53.718;19.946;2022-12-07T16:31:08;99024.20;;;2.00
65765;BMP180;52915;53.718;19.946;2022-12-07T16:36:15;99016.80;;;2.04
65765;BMP180;52915;53.718;19.946;2022-12-07T16:41:40;99017.60;;;2.04
65765;BMP180;52915;53.718;19.946;2022-12-07T16:46:45;99020.20;;;2.00
65765;BMP180;52915;53.718;19.946;2022-12-07T16:51:50;99024.80;;;2.06
65765;BMP180;52915;53.718;19.946;2022-12-07T16:57:16;99017.60;;;2.10
65765;BMP180;52915;53.718;19.946;2022-12-07T17:02:27;99014.60;;;2.00
65765;BMP180;52915;53.718;19.946;2022-12-07T17:07:39;99015.20;;;1.90
65765;BMP180;52915;53.718;19.946;2022-12-07T17:12:49;99012.20;;;1.92
65765;BMP180;52915;53.718;19.946;2022-12-07T17:18:02;99018.60;;;2.00
65765;BMP180;52915;53.718;19.946;2022-12-07T17:23:08;99019.80;;;2.00
65765;BMP180;52915;53.718;19.946;2022-12-07T17:28:13;99020.00;;;1.82
65765;BMP180;52915;53.718;19.946;2022-12-07T17:33:17;99024.60;;;1.90
65765;BMP180;52915;53.718;19.946;2022-12-07T17:38:23;99021.60;;;1.90
65765;BMP180;52915;53.718;19.946;2022-12-07T17:43:27;99018.40;;;1.90
65765;BMP180;52915;53.718;19.946;2022-12-07T17:48:31;99016.60;;;1.90
65765;BMP180;52915;53.718;19.946;2022-12-07T17:53:35;99015.20;;;2.00
65765;BMP180;52915;53.718;19.946;2022-12-07T17:58:38;99010.60;;;1.92
65765;BMP180;52915;53.718;19.946;2022-12-07T18:03:42;99021.20;;;1.90
65765;BMP180;52915;53.718;19.946;2022-12-07T18:08:46;99019.60;;;2.00
65765;BMP180;52915;53.718;19.946;2022-12-07T18:13:50;99019.40;;;2.00
65765;BMP180;52915;53.718;19.946;2022-12-07T18:18:54;99019.40;;;1.90
65765;BMP180;52915;53.718;19.946;2022-12-07T18:24:02;99020.40;;;1.90
65765;BMP180;52915;53.718;19.946;2022-12-07T18:29:08;99019.40;;;2.00
65765;BMP180;52915;53.718;19.946;2022-12-07T18:34:17;99023.40;;;1.90
65765;BMP180;52915;53.718;19.946;2022-12-07T18:39:20;99021.20;;;1.88
65765;BMP180;52915;53.718;19.946;2022-12-07T18:44:24;99022.60;;;1.92
65765;BMP180;52915;53.718;19.946;2022-12-07T18:49:30;99021.20;;;1.90
65765;BMP180;52915;53.718;19.946;2022-12-07T18:54:34;99022.00;;;1.88
65765;BMP180;52915;53.718;19.946;2022-12-07T18:59:38;99021.00;;;1.90
65765;BMP180;52915;53.718;19.946;2022-12-07T19:04:52;99015.20;;;2.00
65765;BMP180;52915;53.718;19.946;2022-12-07T19:09:57;99020.80;;;1.84
65765;BMP180;52915;53.718;19.946;2022-12-07T19:15:04;99018.40;;;1.80
65765;BMP180;52915;53.718;19.946;2022-12-07T19:20:13;99009.20;;;1.80
65765;BMP180;52915;53.718;19.946;2022-12-07T19:25:18;99012.00;;;1.80
65765;BMP180;52915;53.718;19.946;2022-12-07T19:30:23;99016.40;;;1.90
65765;BMP180;52915;53.718;19.946;2022-12-07T19:35:27;99020.00;;;1.80
65765;BMP180;52915;53.718;19.946;2022-12-07T19:40:31;99011.00;;;1.80
65765;BMP180;52915;53.718;19.946;2022-12-07T19:45:36;99006.40;;;1.90
65765;BMP180;52915;53.718;19.946;2022-12-07T19:50:39;99012.00;;;1.90
65765;BMP180;52915;53.718;19.946;2022-12-07T19:55:44;99010.00;;;1.80
65765;BMP180;52915;53.718;19.946;2022-12-07T20:00:51;99011.40;;;1.80
65765;BMP180;52915;53.718;19.946;2022-12-07T20:05:57;99019.00;;;1.80
65765;BMP180;52915;53.718;19.946;2022-12-07T20:11:02;99010.60;;;1.70
65765;BMP180;52915;53.718;19.946;2022-12-07T20:16:30;99014.00;;;1.70
65765;BMP180;52915;53.718;19.946;2022-12-07T20:21:38;99016.20;;;1.70
65765;BMP180;52915;53.718;19.946;2022-12-07T20:26:43;99027.00;;;1.72
65765;BMP180;52915;53.718;19.946;2022-12-07T20:31:49;99027.40;;;1.72
65765;BMP180;52915;53.718;19.946;2022-12-07T20:36:54;99028.20;;;1.64
65765;BMP180;52915;53.718;19.946;2022-12-07T20:41:58;99024.80;;;1.66
65765;BMP180;52915;53.718;19.946;2022-12-07T20:47:20;99029.20;;;1.70
65765;BMP180;52915;53.718;19.946;2022-12-07T20:52:24;99022.60;;;1.70
65765;BMP180;52915;53.718;19.946;2022-12-07T20:57:29;99033.60;;;1.62
65765;BMP180;52915;53.718;19.946;2022-12-07T21:02:33;99032.80;;;1.60
65765;BMP180;52915;53.718;19.946;2022-12-07T21:07:38;99042.20;;;1.60
65765;BMP180;52915;53.718;19.946;2022-12-07T21:12:42;99043.60;;;1.60
65765;BMP180;52915;53.718;19.946;2022-12-07T21:17:46;99053.20;;;1.60
65765;BMP180;52915;53.718;19.946;2022-12-07T21:22:50;99058.20;;;1.60
65765;BMP180;52915;53.718;19.946;2022-12-07T21:27:54;99068.40;;;1.60
65765;BMP180;52915;53.718;19.946;2022-12-07T21:32:57;99070.00;;;1.50
65765;BMP180;52915;53.718;19.946;2022-12-07T21:38:01;99077.00;;;1.60
65765;BMP180;52915;53.718;19.946;2022-12-07T21:43:05;99073.60;;;1.60
65765;BMP180;52915;53.718;19.946;2022-12-07T21:48:08;99079.40;;;1.50
65765;BMP180;52915;53.718;19.946;2022-12-07T21:53:14;99086.00;;;1.50
65765;BMP180;52915;53.718;19.946;2022-12-07T21:58:18;99088.00;;;1.52
65765;BMP180;52915;53.718;19.946;2022-12-07T22:03:21;99096.80;;;1.50
65765;BMP180;52915;53.718;19.946;2022-12-07T22:08:26;99098.00;;;1.50
65765;BMP180;52915;53.718;19.946;2022-12-07T22:13:30;99103.60;;;1.50
65765;BMP180;52915;53.718;19.946;2022-12-07T22:18:54;99104.60;;;1.40
65765;BMP180;52915;53.718;19.946;2022-12-07T22:24:00;99096.80;;;1.40
65765;BMP180;52915;53.718;19.946;2022-12-07T22:29:04;99100.60;;;1.40
65765;BMP180;52915;53.718;19.946;2022-12-07T22:34:17;99100.80;;;1.30
65765;BMP180;52915;53.718;19.946;2022-12-07T22:39:21;99111.60;;;1.40
65765;BMP180;52915;53.718;19.946;2022-12-07T22:44:25;99112.60;;;1.30
65765;BMP180;52915;53.718;19.946;2022-12-07T22:49:29;99108.80;;;1.30
65765;BMP180;52915;53.718;19.946;2022-12-07T22:54:32;99125.60;;;1.40
65765;BMP180;52915;53.718;19.946;2022-12-07T22:59:36;99125.00;;;1.30
65765;BMP180;52915;53.718;19.946;2022-12-07T23:04:40;99128.80;;;1.30
65765;BMP180;52915;53.718;19.946;2022-12-07T23:09:44;99136.40;;;1.40
65765;BMP180;52915;53.718;19.946;2022-12-07T23:14:48;99127.60;;;1.30
65765;BMP180;52915;53.718;19.946;2022-12-07T23:19:56;99137.20;;;1.30
65765;BMP180;52915;53.718;19.946;2022-12-07T23:24:59;99132.00;;;1.38
65765;BMP180;52915;53.718;19.946;2022-12-07T23:30:05;99139.20;;;1.20
65765;BMP180;52915;53.718;19.946;2022-12-07T23:35:09;99141.40;;;1.20
65765;BMP180;52915;53.718;19.946;2022-12-07T23:40:13;99136.20;;;1.20
65765;BMP180;52915;53.718;19.946;2022-12-07T23:45:17;99138.80;;;1.20
65765;BMP180;52915;53.718;19.946;2022-12-07T23:50:20;99136.80;;;1.10
65765;BMP180;52915;53.718;19.946;2022-12-07T23:55:24;99142.40;;;1.20
